createdAt,value
2023-05-24T00:02:48.757Z,13.30
2023-05-24T00:08:17.109Z,13.30
2023-05-24T00:13:45.542Z,13.20
2023-05-24T00:19:18.493Z,13.20
2023-05-24T00:24:46.920Z,13.20
2023-05-24T00:30:14.874Z,13.20
2023-05-24T00:35:43.432Z,13.20
2023-05-24T00:41:11.725Z,13.10
2023-05-24T00:46:40.946Z,13.10
2023-05-24T00:52:10.474Z,13.10
2023-05-24T00:57:38.669Z,13.00
2023-05-24T01:03:07.453Z,13.00
2023-05-24T01:09:22.963Z,13.00
2023-05-24T01:15:19.456Z,13.00
2023-05-24T01:20:59.884Z,13.00
2023-05-24T01:27:09.204Z,12.90
2023-05-24T01:32:38.571Z,12.90
2023-05-24T01:38:08.019Z,12.90
2023-05-24T01:43:45.671Z,12.90
2023-05-24T01:49:26.814Z,12.80
2023-05-24T01:54:58.452Z,12.80
2023-05-24T02:00:27.100Z,12.80
2023-05-24T02:05:55.951Z,12.80
2023-05-24T02:11:23.980Z,12.80
2023-05-24T02:16:51.947Z,12.70
2023-05-24T02:22:22.473Z,12.70
2023-05-24T02:27:50.893Z,12.70
2023-05-24T02:33:19.179Z,12.70
2023-05-24T02:38:47.368Z,12.70
2023-05-24T02:44:16.400Z,12.70
2023-05-24T02:49:44.725Z,12.70
2023-05-24T02:55:13.035Z,12.70
2023-05-24T03:00:41.588Z,12.70
2023-05-24T03:06:14.078Z,12.70
2023-05-24T03:11:42.470Z,12.70
2023-05-24T03:17:10.855Z,12.70
2023-05-24T03:22:39.038Z,12.70
2023-05-24T03:28:07.271Z,12.70
2023-05-24T03:33:35.612Z,12.60
2023-05-24T03:39:10.188Z,12.50
2023-05-24T03:44:54.418Z,12.50
2023-05-24T03:50:22.628Z,12.50
2023-05-24T03:55:52.021Z,12.50
2023-05-24T04:01:32.655Z,12.40
2023-05-24T04:07:02.646Z,12.40
2023-05-24T04:12:31.543Z,12.40
2023-05-24T04:18:00.863Z,12.40
2023-05-24T04:23:28.941Z,12.40
2023-05-24T04:28:58.115Z,12.40
2023-05-24T04:34:30.057Z,12.40
2023-05-24T04:39:58.722Z,12.30
2023-05-24T04:45:26.785Z,12.30
2023-05-24T04:50:56.253Z,12.20
2023-05-24T04:56:24.599Z,12.20
2023-05-24T05:01:52.989Z,12.20
2023-05-24T05:07:21.672Z,12.20
2023-05-24T05:12:49.812Z,12.10
2023-05-24T05:18:17.695Z,12.00
2023-05-24T05:23:47.518Z,12.00
2023-05-24T05:29:15.299Z,12.00
2023-05-24T05:34:43.202Z,12.00
2023-05-24T05:40:11.931Z,12.00
2023-05-24T05:45:40.507Z,12.10
2023-05-24T05:51:08.683Z,12.10
2023-05-24T05:56:41.359Z,12.10
2023-05-24T06:02:09.658Z,12.20
2023-05-24T06:07:38.842Z,12.20
2023-05-24T06:13:07.774Z,12.30
2023-05-24T06:18:36.794Z,12.40
2023-05-24T06:24:05.204Z,12.30
2023-05-24T06:29:37.692Z,12.40
2023-05-24T06:35:06.298Z,12.50
2023-05-24T06:40:34.360Z,12.60
2023-05-24T06:46:02.468Z,12.90
2023-05-24T06:51:33.976Z,13.10
2023-05-24T06:57:01.880Z,13.20
2023-05-24T07:02:30.173Z,13.30
2023-05-24T07:07:58.301Z,13.50
2023-05-24T07:13:26.108Z,13.60
2023-05-24T07:18:55.835Z,13.80
2023-05-24T07:24:24.324Z,14.00
2023-05-24T07:29:52.492Z,14.20
2023-05-24T07:35:21.353Z,14.20
2023-05-24T07:40:49.667Z,14.30
2023-05-24T07:46:17.895Z,14.50
2023-05-24T07:51:46.229Z,14.50
2023-05-24T07:57:13.994Z,14.70
2023-05-24T08:02:43.244Z,14.70
2023-05-24T08:08:11.620Z,14.70
2023-05-24T08:13:39.696Z,14.60
2023-05-24T08:19:07.837Z,14.70
2023-05-24T08:24:35.906Z,14.80
2023-05-24T08:30:04.693Z,14.90
2023-05-24T08:35:32.905Z,14.90
2023-05-24T08:41:02.589Z,14.80
2023-05-24T08:46:31.149Z,14.90
2023-05-24T08:51:59.092Z,14.80
2023-05-24T08:57:28.966Z,14.60
2023-05-24T09:03:23.429Z,14.60
2023-05-24T09:08:54.579Z,14.50
2023-05-24T09:14:22.787Z,14.40
2023-05-24T09:19:53.212Z,14.50
2023-05-24T09:25:21.825Z,14.40
2023-05-24T09:31:00.301Z,14.30
2023-05-24T09:36:33.167Z,14.30
2023-05-24T09:42:03.186Z,14.40
2023-05-24T09:47:34.951Z,14.30
2023-05-24T09:53:03.713Z,14.30
2023-05-24T09:58:35.874Z,14.30
2023-05-24T10:09:56.869Z,14.30
2023-05-24T10:15:27.715Z,14.20
2023-05-24T10:21:04.542Z,14.10
2023-05-24T10:26:33.777Z,14.10
2023-05-24T10:32:05.672Z,14.00
2023-05-24T10:37:34.280Z,13.90
2023-05-24T10:41:46.419Z,14.20
2023-05-24T10:43:07.200Z,13.80
2023-05-24T10:48:42.128Z,13.70
2023-05-24T10:54:20.232Z,13.60
2023-05-24T10:59:48.398Z,13.60
2023-05-24T11:05:17.268Z,13.60
2023-05-24T11:10:45.607Z,13.90
2023-05-24T11:16:40.196Z,14.10
2023-05-24T11:22:09.235Z,14.00
2023-05-24T11:27:46.173Z,13.90
2023-05-24T11:33:22.705Z,13.90
2023-05-24T11:38:51.120Z,13.90
2023-05-24T11:44:22.464Z,14.00
2023-05-24T11:49:54.376Z,14.10
2023-05-24T11:55:25.677Z,14.30
2023-05-24T12:00:53.914Z,14.40
2023-05-24T12:06:22.957Z,14.50
2023-05-24T12:11:52.185Z,14.60
2023-05-24T12:17:20.735Z,14.60
2023-05-24T12:22:53.147Z,14.60
2023-05-24T12:28:24.778Z,14.50
2023-05-24T12:33:54.309Z,14.40
2023-05-24T12:39:31.057Z,14.40
2023-05-24T12:44:59.375Z,14.40
2023-05-24T12:50:27.621Z,14.40
2023-05-24T12:55:56.328Z,14.40
2023-05-24T13:01:25.650Z,14.50
2023-05-24T13:06:56.201Z,14.50
2023-05-24T13:12:24.407Z,14.60
2023-05-24T13:17:53.810Z,14.90
2023-05-24T13:23:21.984Z,15.10
2023-05-24T13:29:18.300Z,15.20
2023-05-24T13:34:38.348Z,15.10
2023-05-24T13:40:07.370Z,15.10
2023-05-24T13:45:35.311Z,15.10
2023-05-24T13:51:03.747Z,15.00
2023-05-24T13:56:32.941Z,15.00
2023-05-24T14:02:01.668Z,14.90
2023-05-24T14:07:30.264Z,14.90
2023-05-24T14:13:11.844Z,14.80
2023-05-24T14:18:46.086Z,14.70
2023-05-24T14:24:14.338Z,14.70
2023-05-24T14:29:42.272Z,14.60
2023-05-24T14:35:10.225Z,14.60
2023-05-24T14:40:40.154Z,14.60
2023-05-24T14:46:09.677Z,14.60
2023-05-24T14:51:38.668Z,14.60
2023-05-24T14:57:07.974Z,14.60
2023-05-24T15:02:37.053Z,14.60
2023-05-24T15:08:05.994Z,14.60
2023-05-24T15:13:34.395Z,14.60
2023-05-24T15:19:02.426Z,14.70
2023-05-24T15:24:30.456Z,14.80
2023-05-24T15:29:59.321Z,15.00
2023-05-24T15:35:27.506Z,15.20
2023-05-24T15:40:55.633Z,15.20
2023-05-24T15:46:23.940Z,15.30
2023-05-24T15:57:22.921Z,16.00
2023-05-24T16:02:52.971Z,16.20
2023-05-24T16:08:27.712Z,16.40
2023-05-24T16:13:57.151Z,16.50
2023-05-24T16:19:25.705Z,16.60
2023-05-24T16:24:54.409Z,16.70
2023-05-24T16:30:22.771Z,16.70
2023-05-24T16:35:55.782Z,16.80
2023-05-24T16:41:24.146Z,16.90
2023-05-24T16:46:52.332Z,17.00
2023-05-24T16:52:20.527Z,16.80
2023-05-24T16:57:48.639Z,16.70
2023-05-24T17:03:16.962Z,16.60
2023-05-24T17:08:45.498Z,16.50
2023-05-24T17:14:13.475Z,16.30
2023-05-24T17:19:41.551Z,16.10
2023-05-24T17:25:11.538Z,15.90
2023-05-24T17:30:39.948Z,15.80
2023-05-24T17:36:12.183Z,15.60
2023-05-24T17:41:41.089Z,15.40
2023-05-24T17:47:09.972Z,15.20
2023-05-24T17:52:37.958Z,15.10
2023-05-24T17:58:06.052Z,15.00
2023-05-24T18:03:37.045Z,14.90
2023-05-24T18:09:05.876Z,14.90
2023-05-24T18:14:35.319Z,14.80
2023-05-24T18:20:06.529Z,14.70
2023-05-24T18:25:35.175Z,14.60
2023-05-24T18:31:15.031Z,14.60
2023-05-24T18:36:46.137Z,14.50
2023-05-24T18:42:14.341Z,14.50
2023-05-24T18:47:42.776Z,14.40
2023-05-24T18:53:11.044Z,14.30
2023-05-24T18:58:39.375Z,14.20
2023-05-24T19:04:07.995Z,14.10
2023-05-24T19:09:36.731Z,14.00
2023-05-24T19:15:05.468Z,13.90
2023-05-24T19:20:33.794Z,13.70
2023-05-24T19:26:02.053Z,13.60
2023-05-24T19:31:30.421Z,13.50
2023-05-24T19:36:58.804Z,13.40
2023-05-24T19:42:28.425Z,13.30
2023-05-24T19:47:56.859Z,13.20
2023-05-24T19:53:25.084Z,13.10
2023-05-24T19:58:53.327Z,13.00
2023-05-24T20:04:22.450Z,12.90
2023-05-24T20:09:50.957Z,12.80
2023-05-24T20:15:19.522Z,12.70
2023-05-24T20:20:48.004Z,12.60
2023-05-24T20:26:16.815Z,12.50
2023-05-24T20:31:47.171Z,12.50
2023-05-24T20:37:15.906Z,12.40
2023-05-24T20:42:43.880Z,12.30
2023-05-24T20:48:12.233Z,12.30
2023-05-24T20:53:40.960Z,12.20
2023-05-24T20:59:09.262Z,12.20
2023-05-24T21:04:37.409Z,12.30
2023-05-24T21:10:05.921Z,12.20
2023-05-24T21:15:33.747Z,12.10
2023-05-24T21:21:02.368Z,12.00
2023-05-24T21:26:30.309Z,11.90
2023-05-24T21:31:59.116Z,11.90
2023-05-24T21:37:27.542Z,11.90
2023-05-24T21:42:55.852Z,11.80
2023-05-24T21:48:24.733Z,11.80
2023-05-24T21:53:53.942Z,11.70
2023-05-24T21:59:22.852Z,11.70
2023-05-24T22:04:52.113Z,11.60
2023-05-24T22:10:20.967Z,11.60
2023-05-24T22:15:49.938Z,11.60
2023-05-24T22:21:21.716Z,11.60
2023-05-24T22:26:50.885Z,11.60
2023-05-24T22:32:19.073Z,11.60
2023-05-24T22:37:50.142Z,11.60
2023-05-24T22:43:19.371Z,11.50
2023-05-24T22:48:52.720Z,11.50
2023-05-24T22:54:20.771Z,11.50
2023-05-24T22:59:49.473Z,11.50
2023-05-24T23:05:21.668Z,11.50
2023-05-24T23:10:49.956Z,11.60
2023-05-24T23:16:18.530Z,11.60
2023-05-24T23:21:46.741Z,11.60
2023-05-24T23:27:15.155Z,11.60
2023-05-24T23:32:50.925Z,11.60
2023-05-24T23:38:20.178Z,11.60
2023-05-24T23:43:48.660Z,11.60
2023-05-24T23:49:19.468Z,11.50
2023-05-24T23:54:47.769Z,11.50
